Time;durP1;ratioP1;P1;durP2;ratioP2;P2;SDS_P1;SDS_P2;PMS_P1;PMS_P2;Temp;Humidity;BMP_temperature;BMP_pressure;BME280_temperature;BME280_humidity;BME280_pressure;Samples;Min_cycle;Max_cycle;Signal;HPM_P1;HPM_P2
2022/08/06 00:02:11;;;;;;;4.18;2.65;;;19.30;99.90;;;;;;5148933;27;20631;-87
2022/08/06 00:04:37;;;;;;;7.72;2.92;;;19.30;99.90;;;;;;5151961;27;20217;-87
2022/08/06 00:07:04;;;;;;;3.38;3.05;;;19.20;99.90;;;;;;5148370;27;20190;-87
2022/08/06 00:09:32;;;;;;;4.90;2.97;;;19.20;99.90;;;;;;5149345;27;20199;-87
2022/08/06 00:12:00;;;;;;;2.72;2.30;;;19.10;99.90;;;;;;5144567;27;20231;-87
2022/08/06 00:14:27;;;;;;;3.63;2.50;;;19.00;99.90;;;;;;5147657;27;20644;-87
2022/08/06 00:16:54;;;;;;;3.67;2.70;;;19.00;99.90;;;;;;5144416;27;20201;-87
2022/08/06 00:19:23;;;;;;;7.25;2.88;;;19.00;99.90;;;;;;5143880;27;20210;-87
2022/08/06 00:21:50;;;;;;;3.72;2.78;;;18.90;99.90;;;;;;5142849;27;20215;-87
2022/08/06 00:24:17;;;;;;;3.47;2.75;;;19.00;99.90;;;;;;5144676;27;20201;-87
2022/08/06 00:26:43;;;;;;;3.55;2.92;;;19.00;99.80;;;;;;5145560;27;20210;-88
2022/08/06 00:29:10;;;;;;;2.83;2.63;;;18.90;99.90;;;;;;5142872;27;20210;-87
2022/08/06 00:31:37;;;;;;;3.20;2.80;;;18.90;99.90;;;;;;5152190;27;20564;-87
2022/08/06 00:34:05;;;;;;;3.40;2.70;;;18.80;99.90;;;;;;5148155;27;20568;-87
2022/08/06 00:36:34;;;;;;;3.25;2.63;;;18.90;99.90;;;;;;5145673;27;20285;-87
2022/08/06 00:39:03;;;;;;;4.72;3.50;;;18.90;99.90;;;;;;5139928;27;20625;-87
2022/08/06 00:41:31;;;;;;;3.55;3.10;;;18.90;99.90;;;;;;5140875;27;20217;-87
2022/08/06 00:43:58;;;;;;;3.28;2.95;;;18.80;99.90;;;;;;5152581;27;20230;-87
2022/08/06 00:46:26;;;;;;;5.30;3.13;;;18.80;99.90;;;;;;5146899;27;20210;-86
2022/08/06 00:48:53;;;;;;;6.53;3.30;;;18.80;99.90;;;;;;5144364;27;20578;-87
2022/08/06 00:51:20;;;;;;;3.85;3.03;;;18.80;99.90;;;;;;5152502;27;20198;-87
2022/08/06 00:53:48;;;;;;;3.92;3.53;;;18.80;99.90;;;;;;5148993;27;20191;-87
2022/08/06 00:56:15;;;;;;;6.97;3.80;;;18.80;99.90;;;;;;5146606;27;20213;-87
2022/08/06 00:58:42;;;;;;;3.47;3.17;;;18.90;99.90;;;;;;5146918;27;20213;-86
2022/08/06 01:03:34;;;;;;;4.15;3.30;;;18.80;99.90;;;;;;5146933;27;20197;-87
2022/08/06 01:06:01;;;;;;;3.05;2.85;;;18.80;99.90;;;;;;5145416;27;20206;-87
2022/08/06 01:08:28;;;;;;;3.50;3.20;;;18.80;99.90;;;;;;5150806;27;20210;-87
2022/08/06 01:10:56;;;;;;;4.25;2.75;;;18.70;99.90;;;;;;5142248;27;20572;-86
2022/08/06 01:13:23;;;;;;;3.25;2.95;;;18.70;99.90;;;;;;5125755;27;20565;-87
2022/08/06 01:15:56;;;;;;;4.85;2.97;;;18.70;99.90;;;;;;5135812;27;20195;-86
2022/08/06 01:18:29;;;;;;;6.47;3.13;;;18.70;99.90;;;;;;5133687;27;20203;-86
2022/08/06 01:21:11;;;;;;;3.83;2.70;;;18.70;99.90;;;;;;5139005;27;20230;-86
2022/08/06 01:23:59;;;;;;;3.35;2.80;;;18.60;99.90;;;;;;5143213;27;20203;-86
2022/08/06 01:26:50;;;;;;;4.05;2.75;;;18.60;99.90;;;;;;5120457;27;20754;-87
2022/08/06 01:29:24;;;;;;;3.17;2.80;;;18.50;99.90;;;;;;5131008;27;20661;-86
2022/08/06 01:31:58;;;;;;;3.67;2.40;;;18.50;99.90;;;;;;5133817;27;20212;-86
2022/08/06 01:34:34;;;;;;;4.35;2.78;;;18.40;99.90;;;;;;5132852;27;20195;-87
2022/08/06 01:37:17;;;;;;;4.10;2.88;;;18.30;99.90;;;;;;5122870;27;20210;-87
2022/08/06 01:39:47;;;;;;;4.97;2.90;;;18.40;99.50;;;;;;5122123;27;20214;-87
2022/08/06 01:42:16;;;;;;;3.40;2.60;;;18.40;99.80;;;;;;5125799;27;20693;-86
2022/08/06 01:44:47;;;;;;;3.00;2.45;;;18.30;99.60;;;;;;5127379;27;20253;-87
2022/08/06 01:47:17;;;;;;;2.80;2.40;;;18.40;99.80;;;;;;5125841;27;20218;-86
2022/08/06 01:49:48;;;;;;;3.95;2.30;;;18.40;99.80;;;;;;5120165;27;20195;-86
2022/08/06 01:52:17;;;;;;;2.78;2.58;;;18.40;99.70;;;;;;5133345;27;20196;-86
2022/08/06 01:54:52;;;;;;;4.13;2.60;;;18.50;99.40;;;;;;5123622;27;20194;-86
2022/08/06 01:57:21;;;;;;;3.33;2.58;;;18.50;99.60;;;;;;5134075;27;20198;-86
2022/08/06 01:59:54;;;;;;;2.80;2.53;;;18.50;99.90;;;;;;5131320;27;20196;-86
2022/08/06 02:02:22;;;;;;;2.60;2.40;;;18.50;99.60;;;;;;5122539;27;20211;-86
2022/08/06 02:04:53;;;;;;;3.45;2.30;;;18.40;99.80;;;;;;5125948;27;20198;-87
2022/08/06 02:07:24;;;;;;;3.63;2.53;;;18.40;99.90;;;;;;5124476;27;20681;-86
2022/08/06 02:09:53;;;;;;;3.35;2.55;;;18.40;99.90;;;;;;5130934;27;20199;-86
2022/08/06 02:12:24;;;;;;;2.22;2.10;;;18.40;99.90;;;;;;5119146;27;20199;-86
2022/08/06 02:14:56;;;;;;;3.00;2.45;;;18.40;99.90;;;;;;5121399;27;20654;-86
2022/08/06 02:17:31;;;;;;;4.82;2.50;;;18.40;99.90;;;;;;5133727;27;20570;-86
2022/08/06 02:20:00;;;;;;;2.80;2.40;;;18.40;99.80;;;;;;5130795;27;20199;-86
2022/08/06 02:22:34;;;;;;;4.38;2.97;;;18.30;99.90;;;;;;5135138;27;20223;-86
2022/08/06 02:25:04;;;;;;;3.65;2.30;;;18.30;99.90;;;;;;5122733;27;20206;-87
2022/08/06 02:27:33;;;;;;;2.70;2.50;;;18.30;99.90;;;;;;5133860;27;20209;-86
2022/08/06 02:30:02;;;;;;;6.38;2.95;;;18.30;99.90;;;;;;5132593;27;20203;-86
2022/08/06 02:32:29;;;;;;;5.57;2.50;;;18.20;99.90;;;;;;5139464;27;20207;-86
2022/08/06 02:35:00;;;;;;;2.80;2.60;;;18.20;99.90;;;;;;5130561;27;20225;-86
2022/08/06 02:37:33;;;;;;;2.85;2.58;;;18.30;99.90;;;;;;5123703;27;20187;-86
2022/08/06 02:40:09;;;;;;;2.90;2.60;;;18.30;99.90;;;;;;5132261;27;20194;-86
2022/08/06 02:42:43;;;;;;;2.80;2.60;;;18.30;99.90;;;;;;5134155;27;20223;-87
2022/08/06 02:45:18;;;;;;;5.18;2.72;;;18.30;99.90;;;;;;5132799;27;20727;-86
2022/08/06 02:47:53;;;;;;;3.05;2.80;;;18.30;99.90;;;;;;5132152;27;20202;-87
2022/08/06 02:50:25;;;;;;;3.08;2.88;;;18.30;99.90;;;;;;5124187;27;20221;-86
2022/08/06 02:52:58;;;;;;;3.13;2.83;;;18.30;99.90;;;;;;5125530;27;20217;-86
2022/08/06 02:55:30;;;;;;;3.90;2.80;;;18.20;99.90;;;;;;5127069;27;20200;-86
2022/08/06 02:58:01;;;;;;;3.45;2.75;;;18.30;99.90;;;;;;5130890;27;20192;-87
2022/08/06 03:00:31;;;;;;;2.75;2.55;;;18.40;99.90;;;;;;5126918;27;20209;-86
2022/08/06 03:03:02;;;;;;;2.95;2.72;;;18.40;99.90;;;;;;5131038;27;20238;-87
2022/08/06 03:05:29;;;;;;;3.15;2.85;;;18.40;99.90;;;;;;5136176;27;20195;-86
2022/08/06 03:07:58;;;;;;;4.53;3.00;;;18.50;99.90;;;;;;5129615;27;20590;-87
2022/08/06 03:10:26;;;;;;;2.92;2.72;;;18.50;99.90;;;;;;5143638;27;20186;-86
2022/08/06 03:12:55;;;;;;;5.13;3.15;;;18.60;99.90;;;;;;5141673;27;20219;-86
2022/08/06 03:15:25;;;;;;;4.55;3.33;;;18.60;99.90;;;;;;5133658;27;20199;-86
2022/08/06 03:17:58;;;;;;;4.07;3.67;;;18.50;99.90;;;;;;5143011;27;20195;-86
2022/08/06 03:20:27;;;;;;;6.25;3.53;;;18.40;99.90;;;;;;5131577;27;20568;-86
2022/08/06 03:22:58;;;;;;;3.92;3.53;;;18.50;99.90;;;;;;5137521;27;20310;-86
2022/08/06 03:25:27;;;;;;;4.93;3.85;;;18.50;99.90;;;;;;5134093;27;20615;-87
2022/08/06 03:27:54;;;;;;;4.05;3.75;;;18.50;99.90;;;;;;5127466;27;20259;-86
2022/08/06 03:30:26;;;;;;;5.43;4.70;;;18.50;99.90;;;;;;5124570;27;20618;-87
2022/08/06 03:32:55;;;;;;;4.80;4.28;;;18.60;99.90;;;;;;5141649;27;20661;-86
2022/08/06 03:35:23;;;;;;;5.07;4.57;;;18.60;99.90;;;;;;5132201;27;20211;-86
2022/08/06 03:37:52;;;;;;;5.15;4.63;;;18.50;99.90;;;;;;5128925;27;20666;-86
2022/08/06 03:40:20;;;;;;;6.63;5.80;;;18.70;99.90;;;;;;5128663;27;20199;-86
2022/08/06 03:42:49;;;;;;;7.43;6.55;;;18.70;99.90;;;;;;5129849;27;20298;-86
2022/08/06 03:45:16;;;;;;;6.55;5.95;;;18.70;99.90;;;;;;5130110;27;20222;-86
2022/08/06 03:47:47;;;;;;;7.25;5.70;;;18.70;99.90;;;;;;5130449;27;20726;-86
2022/08/06 03:50:17;;;;;;;7.32;6.63;;;18.80;99.90;;;;;;5122140;27;20203;-86
2022/08/06 03:52:49;;;;;;;7.43;6.63;;;18.80;99.90;;;;;;5124065;27;20196;-87
2022/08/06 03:55:20;;;;;;;7.68;6.30;;;18.80;99.90;;;;;;5135207;27;20207;-86
2022/08/06 03:57:50;;;;;;;9.10;8.20;;;18.70;99.90;;;;;;5127199;27;20203;-86
2022/08/06 04:00:22;;;;;;;8.45;7.57;;;18.70;99.90;;;;;;5126410;28;20207;-86
2022/08/06 04:02:51;;;;;;;9.35;7.85;;;18.70;99.90;;;;;;5122342;27;20219;-86
2022/08/06 04:05:21;;;;;;;8.75;7.85;;;18.80;99.90;;;;;;5131764;27;20214;-86
2022/08/06 04:07:50;;;;;;;7.63;6.90;;;18.80;99.90;;;;;;5128133;27;20210;-86
2022/08/06 04:10:19;;;;;;;9.00;7.68;;;18.90;99.90;;;;;;5129758;27;20200;-86
2022/08/06 04:12:46;;;;;;;8.48;7.60;;;18.90;99.90;;;;;;5130762;27;20199;-86
2022/08/06 04:15:14;;;;;;;9.73;8.73;;;18.90;99.90;;;;;;5128702;27;20212;-86
2022/08/06 04:17:45;;;;;;;9.10;8.10;;;18.90;99.90;;;;;;5124357;27;20206;-86
2022/08/06 04:20:14;;;;;;;9.63;8.32;;;18.90;99.90;;;;;;5131228;27;20201;-86
2022/08/06 04:22:42;;;;;;;8.88;7.97;;;18.90;99.90;;;;;;5149865;27;20693;-86
2022/08/06 04:25:11;;;;;;;11.65;8.30;;;18.80;99.90;;;;;;5140434;27;20203;-86
2022/08/06 04:27:41;;;;;;;10.10;7.82;;;18.90;99.90;;;;;;5135691;27;20305;-86
2022/08/06 04:30:09;;;;;;;9.23;8.25;;;18.90;99.90;;;;;;5139062;27;20205;-86
2022/08/06 04:32:37;;;;;;;9.70;8.65;;;18.90;99.90;;;;;;5129065;27;20214;-86
2022/08/06 04:35:06;;;;;;;9.20;8.25;;;18.80;99.90;;;;;;5134901;27;20668;-87
2022/08/06 04:37:35;;;;;;;9.20;8.30;;;18.70;99.90;;;;;;5123106;27;20222;-86
2022/08/06 04:40:06;;;;;;;11.60;9.00;;;18.80;99.90;;;;;;5126704;27;20203;-86
2022/08/06 04:42:33;;;;;;;11.38;9.73;;;18.90;99.90;;;;;;5118583;27;20215;-86
2022/08/06 04:45:01;;;;;;;14.57;13.05;;;18.80;99.90;;;;;;5123560;27;20223;-86
2022/08/06 04:47:31;;;;;;;15.93;14.10;;;18.80;99.90;;;;;;5121589;27;20650;-86
2022/08/06 04:49:57;;;;;;;17.60;15.77;;;18.80;99.90;;;;;;5130321;27;20537;-86
2022/08/06 04:52:26;;;;;;;17.85;15.77;;;18.70;99.90;;;;;;5130079;27;20207;-87
2022/08/06 04:54:53;;;;;;;17.63;15.82;;;18.70;99.50;;;;;;5129048;27;20195;-86
2022/08/06 04:57:22;;;;;;;17.38;15.68;;;18.60;99.90;;;;;;5121933;27;20203;-86
2022/08/06 04:59:48;;;;;;;18.30;15.95;;;18.60;99.90;;;;;;5125863;27;20568;-86
2022/08/06 05:02:15;;;;;;;17.27;15.55;;;18.50;99.90;;;;;;5140344;27;20225;-86
2022/08/06 05:04:43;;;;;;;16.40;14.80;;;18.50;99.90;;;;;;5123626;27;20196;-86
2022/08/06 05:07:23;;;;;;;15.63;13.80;;;18.30;99.90;;;;;;5140749;27;20539;-86
2022/08/06 05:09:50;;;;;;;15.68;13.65;;;18.30;99.90;;;;;;5122516;27;20226;-86
2022/08/06 05:12:22;;;;;;;14.45;13.05;;;18.30;99.90;;;;;;5135719;27;20210;-86
2022/08/06 05:14:54;;;;;;;15.55;13.68;;;18.30;99.90;;;;;;5129803;27;20191;-86
2022/08/06 05:17:24;;;;;;;15.77;12.50;;;18.20;99.90;;;;;;5141203;27;20675;-86
2022/08/06 05:19:56;;;;;;;12.95;11.65;;;18.20;99.90;;;;;;5125544;27;20569;-86
2022/08/06 05:22:24;;;;;;;10.27;9.27;;;18.30;99.90;;;;;;5126645;27;20692;-86
2022/08/06 05:24:51;;;;;;;8.95;8.13;;;18.30;99.90;;;;;;5128682;27;20210;-87
2022/08/06 05:27:18;;;;;;;9.35;8.50;;;18.20;99.70;;;;;;5136880;27;20226;-86
2022/08/06 05:29:47;;;;;;;7.60;6.80;;;18.10;99.90;;;;;;5131413;27;20573;-87
2022/08/06 05:32:13;;;;;;;7.55;6.85;;;18.00;99.90;;;;;;5129121;27;20211;-86
2022/08/06 05:34:40;;;;;;;7.50;6.07;;;18.10;99.90;;;;;;5125917;27;20295;-86
2022/08/06 05:37:13;;;;;;;6.50;5.90;;;18.00;99.90;;;;;;5128726;27;20204;-86
2022/08/06 05:39:40;;;;;;;6.90;6.20;;;17.90;99.60;;;;;;5125255;27;20204;-86
2022/08/06 05:42:07;;;;;;;7.38;6.68;;;17.90;99.80;;;;;;5136742;27;20688;-86
2022/08/06 05:44:33;;;;;;;7.53;6.75;;;17.80;99.90;;;;;;5134954;27;20219;-85
2022/08/06 05:47:05;;;;;;;7.80;6.22;;;17.80;99.90;;;;;;5131291;27;20202;-86
2022/08/06 05:49:37;;;;;;;6.70;6.10;;;17.70;99.90;;;;;;5137689;27;20605;-86
2022/08/06 05:52:11;;;;;;;6.28;5.68;;;17.70;99.90;;;;;;5134885;27;20207;-86
2022/08/06 05:54:42;;;;;;;6.35;5.75;;;17.60;99.90;;;;;;5121509;27;20789;-86
2022/08/06 05:57:13;;;;;;;6.68;5.97;;;17.50;99.90;;;;;;5128333;27;20207;-85
2022/08/06 05:59:44;;;;;;;6.28;5.60;;;17.50;99.90;;;;;;5131026;27;20208;-85
2022/08/06 06:02:16;;;;;;;5.97;5.45;;;17.50;99.90;;;;;;5129878;27;20223;-86
2022/08/06 06:04:46;;;;;;;6.50;5.43;;;17.50;99.90;;;;;;5131831;27;20639;-86
2022/08/06 06:07:14;;;;;;;7.78;5.60;;;17.30;99.10;;;;;;5133841;27;20207;-85
2022/08/06 06:09:42;;;;;;;8.50;6.20;;;17.30;99.70;;;;;;5128328;27;20200;-85
2022/08/06 06:12:14;;;;;;;6.70;6.07;;;17.10;99.20;;;;;;5138962;27;20203;-85
2022/08/06 06:14:42;;;;;;;6.30;5.70;;;17.10;99.70;;;;;;5130874;27;20694;-87
2022/08/06 06:17:26;;;;;;;6.53;5.93;;;17.10;99.40;;;;;;5132462;27;20195;-86
2022/08/06 06:20:03;;;;;;;8.05;6.00;;;17.10;99.40;;;;;;5129653;27;20203;-86
2022/08/06 06:22:39;;;;;;;6.38;5.78;;;17.10;99.80;;;;;;5135558;27;20222;-86
2022/08/06 06:25:12;;;;;;;6.40;5.50;;;17.10;99.30;;;;;;5129898;27;20195;-85
2022/08/06 06:27:46;;;;;;;6.30;5.70;;;17.10;99.40;;;;;;5139209;27;20654;-85
2022/08/06 06:30:18;;;;;;;6.75;5.93;;;17.00;99.10;;;;;;5130271;27;20200;-86
2022/08/06 06:32:52;;;;;;;6.82;6.22;;;17.00;99.00;;;;;;5130058;27;20211;-86
2022/08/06 06:35:42;;;;;;;7.20;6.50;;;17.00;99.20;;;;;;5140191;27;20214;-85
2022/08/06 06:38:20;;;;;;;6.30;5.57;;;16.90;99.10;;;;;;5131757;27;20549;-85
2022/08/06 06:40:54;;;;;;;7.57;6.88;;;16.90;98.70;;;;;;5132605;27;20204;-85
2022/08/06 06:43:28;;;;;;;7.03;6.43;;;16.90;97.70;;;;;;5127546;27;20215;-85
2022/08/06 06:46:01;;;;;;;7.05;6.45;;;16.80;98.20;;;;;;5131483;27;20579;-85
2022/08/06 06:48:34;;;;;;;6.90;6.30;;;16.80;98.60;;;;;;5125863;27;20203;-85
2022/08/06 06:51:06;;;;;;;7.22;6.53;;;16.90;98.80;;;;;;5125442;27;20559;-85
2022/08/06 06:53:41;;;;;;;7.05;6.35;;;16.90;98.40;;;;;;5135817;27;20203;-85
2022/08/06 06:56:09;;;;;;;6.28;5.68;;;16.90;98.20;;;;;;5125469;27;20681;-85
2022/08/06 06:58:39;;;;;;;6.60;5.85;;;16.90;97.40;;;;;;5125489;27;20215;-86
2022/08/06 07:01:10;;;;;;;6.70;6.10;;;16.90;97.60;;;;;;5123278;27;20213;-85
2022/08/06 07:03:41;;;;;;;6.95;6.20;;;16.80;97.30;;;;;;5121802;27;20220;-85
2022/08/06 07:06:09;;;;;;;8.00;6.40;;;16.70;97.30;;;;;;5123416;27;20196;-84
2022/08/06 07:09:19;;;;;;;7.13;6.53;;;16.70;98.30;;;;;;5119072;27;20211;-84
2022/08/06 07:11:49;;;;;;;7.45;6.43;;;16.70;97.30;;;;;;5119419;27;20206;-84
2022/08/06 07:14:17;;;;;;;6.93;6.22;;;16.60;97.30;;;;;;5121100;27;20203;-86
2022/08/06 07:21:39;;;;;;;7.03;6.22;;;16.70;97.60;;;;;;5123854;27;20241;-85
2022/08/06 07:24:07;;;;;;;6.80;5.93;;;16.80;97.70;;;;;;5125863;27;20215;-85
2022/08/06 07:26:35;;;;;;;7.82;5.35;;;16.90;97.40;;;;;;5123340;27;20260;-86
2022/08/06 07:29:05;;;;;;;6.22;5.63;;;16.90;97.30;;;;;;5126488;27;20195;-86
2022/08/06 07:31:37;;;;;;;6.63;5.93;;;16.80;97.30;;;;;;5125123;27;20318;-86
2022/08/06 07:34:04;;;;;;;6.63;6.05;;;16.90;97.90;;;;;;5128020;27;20191;-85
2022/08/06 07:36:41;;;;;;;6.63;5.85;;;16.90;97.90;;;;;;5117190;27;20634;-85
2022/08/06 07:39:10;;;;;;;6.25;5.68;;;16.70;97.90;;;;;;5122158;27;20190;-86
2022/08/06 07:41:38;;;;;;;6.82;6.20;;;16.70;98.00;;;;;;5121318;27;20469;-87
2022/08/06 07:44:08;;;;;;;6.75;6.15;;;16.70;98.00;;;;;;5126973;27;20234;-86
2022/08/06 07:46:40;;;;;;;6.85;6.18;;;16.50;98.20;;;;;;5121787;27;20195;-88
2022/08/06 07:49:09;;;;;;;7.32;6.57;;;16.60;98.90;;;;;;5124102;27;20201;-86
2022/08/06 07:51:41;;;;;;;8.18;7.45;;;16.80;98.90;;;;;;5120211;27;20200;-86
2022/08/06 07:54:09;;;;;;;8.45;7.65;;;16.70;98.40;;;;;;5120520;27;20702;-84
2022/08/06 07:56:37;;;;;;;8.98;8.13;;;16.90;99.20;;;;;;5130201;27;20192;-86
2022/08/06 07:59:05;;;;;;;8.20;7.40;;;17.20;98.70;;;;;;5125834;27;20618;-86
2022/08/06 08:01:33;;;;;;;8.02;7.15;;;17.10;96.90;;;;;;5125520;27;20200;-87
2022/08/06 08:06:46;;;;;;;8.68;7.78;;;16.80;97.30;;;;;;5123594;27;20680;-88
2022/08/06 08:09:15;;;;;;;11.85;10.75;;;17.00;97.40;;;;;;5124455;27;20574;-88
2022/08/06 08:11:43;;;;;;;8.70;7.57;;;17.20;97.70;;;;;;5124939;27;20199;-87
2022/08/06 08:14:11;;;;;;;9.18;8.40;;;17.20;96.70;;;;;;5133113;27;20202;-85
2022/08/06 08:16:40;;;;;;;8.77;7.88;;;17.20;96.90;;;;;;5133665;27;20196;-84
2022/08/06 08:19:22;;;;;;;10.07;9.18;;;17.20;96.30;;;;;;5125511;27;20211;-86
2022/08/06 08:21:51;;;;;;;14.82;13.40;;;17.10;97.40;;;;;;5123182;27;20211;-86
2022/08/06 08:24:18;;;;;;;10.60;9.60;;;17.20;97.40;;;;;;5132892;27;20215;-86
2022/08/06 08:26:45;;;;;;;10.23;9.23;;;17.10;97.40;;;;;;5131841;27;20799;-86
2022/08/06 08:29:13;;;;;;;10.93;9.80;;;17.00;97.40;;;;;;5133218;27;20210;-87
2022/08/06 08:31:40;;;;;;;10.90;9.82;;;16.70;97.40;;;;;;5123414;27;20214;-86
2022/08/06 08:34:06;;;;;;;10.82;9.82;;;16.80;97.80;;;;;;5133889;27;20207;-86
2022/08/06 08:36:33;;;;;;;11.40;10.30;;;16.80;97.40;;;;;;5123172;27;20197;-86
2022/08/06 08:39:01;;;;;;;12.27;11.23;;;16.80;97.30;;;;;;5128551;27;20195;-87
2022/08/06 08:41:34;;;;;;;10.55;9.52;;;16.80;97.30;;;;;;5127257;27;20198;-86
2022/08/06 08:44:06;;;;;;;12.23;11.07;;;16.90;97.40;;;;;;5128764;27;20231;-85
2022/08/06 08:46:35;;;;;;;11.98;10.77;;;17.00;97.40;;;;;;5130697;27;20196;-86
2022/08/06 08:49:04;;;;;;;11.45;10.32;;;17.10;97.10;;;;;;5128360;27;20294;-86
2022/08/06 08:51:33;;;;;;;12.15;11.02;;;17.20;97.00;;;;;;5132391;27;20218;-87
2022/08/06 08:54:05;;;;;;;12.50;11.18;;;17.20;96.70;;;;;;5127659;27;20717;-85
2022/08/06 08:56:33;;;;;;;12.25;11.02;;;17.10;96.60;;;;;;5124006;27;20196;-85
2022/08/06 08:59:01;;;;;;;11.25;10.20;;;17.20;97.40;;;;;;5129162;27;20213;-85
2022/08/06 09:01:28;;;;;;;11.30;10.10;;;17.30;96.80;;;;;;5131008;27;20206;-86
2022/08/06 09:03:56;;;;;;;11.85;10.68;;;17.40;96.50;;;;;;5131226;27;20393;-85
2022/08/06 09:06:24;;;;;;;11.80;10.70;;;17.40;96.90;;;;;;5128799;27;20196;-86
2022/08/06 09:08:51;;;;;;;12.18;10.35;;;17.30;96.30;;;;;;5128943;27;20396;-86
2022/08/06 09:11:20;;;;;;;12.23;11.13;;;17.50;96.40;;;;;;5127806;27;20223;-86
2022/08/06 09:13:47;;;;;;;12.20;10.45;;;17.50;95.80;;;;;;5133835;27;20195;-86
2022/08/06 09:16:14;;;;;;;11.77;10.75;;;17.50;96.00;;;;;;5125287;27;20718;-86
2022/08/06 09:18:42;;;;;;;11.07;9.95;;;17.30;95.40;;;;;;5134766;27;20214;-87
2022/08/06 09:21:08;;;;;;;17.23;15.52;;;17.40;97.20;;;;;;5131648;27;20198;-86
2022/08/06 09:23:39;;;;;;;13.10;11.07;;;17.70;96.20;;;;;;5130542;27;20680;-87
2022/08/06 09:26:06;;;;;;;14.50;13.07;;;17.70;95.50;;;;;;5123477;27;20749;-86
2022/08/06 09:28:37;;;;;;;56.00;49.58;;;17.70;95.30;;;;;;5125368;27;20200;-86
2022/08/06 09:31:06;;;;;;;16.48;14.88;;;17.70;96.30;;;;;;5135974;27;20558;-86
2022/08/06 09:33:37;;;;;;;18.52;16.70;;;17.70;95.80;;;;;;5126755;27;20196;-86
2022/08/06 09:36:08;;;;;;;13.70;12.40;;;17.60;95.50;;;;;;5134169;27;20199;-86
2022/08/06 09:38:47;;;;;;;13.48;12.23;;;17.50;95.90;;;;;;5125956;27;20195;-86
2022/08/06 09:41:15;;;;;;;14.60;12.48;;;17.60;96.70;;;;;;5131184;27;20211;-86
2022/08/06 09:43:44;;;;;;;12.90;11.63;;;17.60;96.20;;;;;;5132041;27;20238;-86
2022/08/06 09:46:10;;;;;;;13.55;12.35;;;17.50;96.40;;;;;;5133576;27;20278;-86
2022/08/06 09:48:37;;;;;;;13.45;12.05;;;17.40;96.60;;;;;;5133553;27;20194;-86
2022/08/06 09:51:04;;;;;;;13.25;12.02;;;17.40;96.90;;;;;;5126755;27;20203;-86
2022/08/06 09:53:31;;;;;;;13.80;12.20;;;17.30;96.80;;;;;;5123940;27;20199;-86
2022/08/06 09:55:58;;;;;;;13.43;12.18;;;17.20;96.20;;;;;;5131249;27;20199;-86
2022/08/06 09:58:35;;;;;;;12.27;11.18;;;17.10;97.00;;;;;;5131298;27;20614;-85
2022/08/06 10:01:17;;;;;;;11.80;10.70;;;17.10;96.80;;;;;;5132542;27;20650;-86
2022/08/06 10:03:45;;;;;;;12.48;11.27;;;17.20;97.00;;;;;;5126766;27;20222;-86
2022/08/06 10:06:14;;;;;;;13.25;11.95;;;17.40;96.20;;;;;;5132493;27;20202;-86
2022/08/06 10:08:43;;;;;;;12.38;11.18;;;17.50;96.50;;;;;;5127857;27;20654;-86
2022/08/06 10:11:09;;;;;;;13.50;12.18;;;17.50;96.50;;;;;;5130724;27;20341;-86
2022/08/06 10:13:48;;;;;;;12.90;11.68;;;17.70;95.90;;;;;;5128782;27;20202;-86
2022/08/06 10:16:18;;;;;;;17.75;15.80;;;17.70;95.60;;;;;;5127115;27;20229;-85
2022/08/06 10:18:49;;;;;;;13.82;12.48;;;17.90;95.50;;;;;;5133623;27;20199;-85
2022/08/06 10:21:22;;;;;;;13.75;11.57;;;17.70;95.40;;;;;;5127861;27;20200;-85
2022/08/06 10:23:55;;;;;;;11.60;10.38;;;17.60;95.80;;;;;;5124519;27;20229;-84
2022/08/06 10:26:32;;;;;;;12.65;11.35;;;17.80;95.30;;;;;;5134696;27;20187;-85
2022/08/06 10:29:04;;;;;;;12.70;10.60;;;17.80;95.10;;;;;;5130663;27;20677;-84
2022/08/06 10:31:33;;;;;;;12.02;10.93;;;17.90;95.40;;;;;;5134910;27;20188;-85
2022/08/06 10:34:03;;;;;;;11.23;10.13;;;17.80;94.80;;;;;;5133989;27;20191;-84
2022/08/06 10:36:35;;;;;;;10.20;9.20;;;18.10;94.40;;;;;;5138482;27;20187;-85
2022/08/06 10:39:07;;;;;;;10.63;9.60;;;18.40;94.30;;;;;;5129285;27;20207;-84
2022/08/06 10:41:35;;;;;;;10.52;8.82;;;18.60;93.70;;;;;;5130246;27;20668;-85
2022/08/06 10:44:03;;;;;;;9.23;8.32;;;18.80;92.40;;;;;;5126820;27;20694;-85
2022/08/06 10:46:30;;;;;;;9.35;8.45;;;18.90;92.40;;;;;;5135299;27;20279;-84
2022/08/06 10:48:59;;;;;;;9.20;8.38;;;18.80;92.30;;;;;;5131962;27;20543;-84
2022/08/06 10:51:27;;;;;;;9.00;8.13;;;18.80;93.10;;;;;;5131385;27;20188;-85
2022/08/06 10:53:55;;;;;;;9.10;8.25;;;18.50;92.90;;;;;;5133599;27;20187;-85
2022/08/06 10:56:30;;;;;;;8.60;7.80;;;18.30;93.30;;;;;;5129467;27;20200;-85
2022/08/06 10:58:58;;;;;;;7.97;7.28;;;18.20;93.70;;;;;;5131813;27;20199;-84
2022/08/06 11:01:29;;;;;;;7.95;7.25;;;18.30;93.20;;;;;;5120659;27;20570;-84
2022/08/06 11:04:22;;;;;;;9.38;8.48;;;18.30;94.10;;;;;;5123242;27;20222;-85
2022/08/06 11:07:10;;;;;;;8.68;7.88;;;18.50;93.30;;;;;;5129948;27;20195;-84
2022/08/06 11:10:05;;;;;;;8.20;7.40;;;18.40;93.60;;;;;;5126959;27;20206;-84
2022/08/06 11:12:48;;;;;;;9.15;8.23;;;18.60;94.00;;;;;;5127185;27;20203;-84
2022/08/06 11:15:19;;;;;;;8.10;7.40;;;18.60;92.50;;;;;;5134878;27;20646;-85
2022/08/06 11:17:47;;;;;;;9.45;8.02;;;18.80;92.60;;;;;;5131360;27;20194;-84
2022/08/06 11:20:40;;;;;;;101.28;81.18;;;18.80;92.30;;;;;;5125552;27;20197;-84
2022/08/06 11:23:26;;;;;;;12.95;11.60;;;18.80;92.60;;;;;;5131517;27;20638;-84
2022/08/06 11:25:55;;;;;;;9.82;8.35;;;18.80;92.30;;;;;;5131604;27;20554;-85
2022/08/06 11:29:02;;;;;;;8.68;7.88;;;19.00;92.40;;;;;;5133013;27;20191;-85
2022/08/06 11:31:45;;;;;;;10.60;9.20;;;19.20;92.40;;;;;;5129562;27;20537;-82
2022/08/06 11:34:14;;;;;;;8.88;8.05;;;19.90;90.70;;;;;;5123724;27;20187;-82
2022/08/06 11:37:07;;;;;;;7.55;6.90;;;20.10;85.40;;;;;;5138012;27;20215;-82
2022/08/06 11:40:07;;;;;;;7.22;6.63;;;20.40;85.50;;;;;;5127789;27;20196;-82
2022/08/06 11:42:42;;;;;;;7.55;6.95;;;20.40;81.70;;;;;;5137654;27;20530;-82
2022/08/06 11:45:12;;;;;;;8.35;7.55;;;20.20;83.10;;;;;;5130802;27;20225;-83
2022/08/06 11:48:04;;;;;;;7.80;7.10;;;19.90;85.60;;;;;;5138636;27;20191;-82
2022/08/06 11:50:31;;;;;;;7.60;6.90;;;19.60;87.70;;;;;;5136673;27;20252;-82
2022/08/06 11:53:01;;;;;;;7.63;7.00;;;19.40;90.40;;;;;;5136568;27;20205;-82
2022/08/06 11:55:28;;;;;;;8.73;7.82;;;19.40;90.80;;;;;;5124214;27;20192;-83
2022/08/06 11:58:20;;;;;;;9.48;8.30;;;19.60;90.50;;;;;;5130876;27;20676;-83
2022/08/06 12:00:57;;;;;;;8.55;7.75;;;19.70;90.20;;;;;;5131800;27;20245;-82
2022/08/06 12:03:45;;;;;;;11.27;8.90;;;19.50;90.50;;;;;;5129583;27;20223;-82
2022/08/06 12:06:22;;;;;;;9.77;8.13;;;19.30;90.70;;;;;;5135764;27;20217;-83
2022/08/06 12:09:09;;;;;;;10.10;9.10;;;19.40;91.20;;;;;;5144184;27;20225;-84
2022/08/06 12:11:36;;;;;;;9.85;9.02;;;19.20;91.00;;;;;;5131875;27;20199;-85
2022/08/06 12:14:47;;;;;;;10.40;9.50;;;19.30;90.40;;;;;;5127150;28;20256;-85
2022/08/06 12:17:24;;;;;;;11.75;10.70;;;19.10;91.40;;;;;;5123857;27;20196;-85
2022/08/06 12:20:01;;;;;;;12.70;11.60;;;19.10;91.60;;;;;;5124155;27;20200;-85
2022/08/06 12:22:32;;;;;;;12.35;11.23;;;19.00;91.60;;;;;;5122924;27;20196;-84
2022/08/06 12:25:05;;;;;;;13.13;11.93;;;19.00;91.10;;;;;;5127919;27;20625;-84
2022/08/06 12:27:46;;;;;;;15.07;11.18;;;19.00;91.70;;;;;;5127293;27;20677;-85
2022/08/06 12:30:18;;;;;;;14.50;12.48;;;19.00;91.70;;;;;;5124661;28;20198;-84
2022/08/06 12:32:45;;;;;;;13.93;12.10;;;18.90;91.60;;;;;;5123395;27;20234;-85
2022/08/06 12:35:18;;;;;;;13.93;12.23;;;18.90;91.50;;;;;;5131282;27;20564;-85
2022/08/06 12:37:46;;;;;;;13.00;11.70;;;18.90;91.60;;;;;;5133042;27;20196;-85
2022/08/06 12:40:29;;;;;;;13.07;11.88;;;18.90;91.30;;;;;;5135470;27;20199;-85
2022/08/06 12:43:11;;;;;;;12.88;11.75;;;19.00;91.10;;;;;;5130676;27;20195;-86
2022/08/06 12:45:42;;;;;;;11.73;10.65;;;19.00;90.90;;;;;;5128428;27;20566;-84
2022/08/06 12:48:11;;;;;;;11.45;10.25;;;18.90;91.20;;;;;;5123217;28;20540;-84
2022/08/06 12:50:40;;;;;;;12.38;11.18;;;19.00;92.40;;;;;;5126113;27;20215;-86
2022/08/06 12:53:09;;;;;;;10.27;9.35;;;19.20;91.40;;;;;;5129674;27;20260;-84
2022/08/06 12:55:46;;;;;;;11.27;10.27;;;19.50;90.80;;;;;;5130646;27;20199;-84
2022/08/06 12:58:16;;;;;;;11.10;10.00;;;19.90;87.10;;;;;;5124421;27;20218;-84
2022/08/06 13:00:48;;;;;;;10.68;9.77;;;20.10;84.80;;;;;;5126372;27;20566;-84
2022/08/06 13:03:17;;;;;;;12.38;11.18;;;20.00;85.70;;;;;;5124338;27;20199;-84
2022/08/06 13:05:45;;;;;;;12.48;11.27;;;20.10;84.80;;;;;;5130518;27;20223;-85
2022/08/06 13:08:13;;;;;;;11.45;10.27;;;19.90;85.40;;;;;;5128706;27;20206;-84
2022/08/06 13:10:47;;;;;;;11.15;9.63;;;19.90;87.40;;;;;;5130373;27;20195;-84
2022/08/06 13:13:16;;;;;;;11.95;9.15;;;20.10;87.60;;;;;;5129801;27;20207;-84